sensor_id;sensor_type;location;lat;lon;timestamp;pressure;altitude;pressure_sealevel;temperature;humidity
42725;BME280;28369;44.046;23.014;2023-05-21T00:00:24;101080.63;;;26.83;44.75
42725;BME280;28369;44.046;23.014;2023-05-21T00:02:50;101112.47;;;26.74;45.28
42725;BME280;28369;44.046;23.014;2023-05-21T00:05:16;101111.56;;;26.18;46.69
42725;BME280;28369;44.046;23.014;2023-05-21T00:07:42;101100.53;;;25.94;47.33
42725;BME280;28369;44.046;23.014;2023-05-21T00:10:08;101070.06;;;25.43;47.89
42725;BME280;28369;44.046;23.014;2023-05-21T00:12:34;101099.47;;;26.02;47.20
42725;BME280;28369;44.046;23.014;2023-05-21T00:15:00;101089.03;;;26.12;46.85
42725;BME280;28369;44.046;23.014;2023-05-21T00:17:26;100930.84;;;25.57;45.88
42725;BME280;28369;44.046;23.014;2023-05-21T00:19:57;101088.75;;;26.39;45.90
42725;BME280;28369;44.046;23.014;2023-05-21T00:22:29;101038.75;;;26.25;45.83
42725;BME280;28369;44.046;23.014;2023-05-21T00:24:54;101080.59;;;26.27;45.98
42725;BME280;28369;44.046;23.014;2023-05-21T00:27:20;101008.63;;;25.65;46.67
42725;BME280;28369;44.046;23.014;2023-05-21T00:29:49;100993.19;;;25.22;47.60
42725;BME280;28369;44.046;23.014;2023-05-21T00:32:14;101086.75;;;25.52;48.17
42725;BME280;28369;44.046;23.014;2023-05-21T00:34:40;101046.22;;;26.04;46.80
42725;BME280;28369;44.046;23.014;2023-05-21T00:37:05;101057.63;;;25.99;46.71
42725;BME280;28369;44.046;23.014;2023-05-21T00:39:34;101068.19;;;25.76;47.09
42725;BME280;28369;44.046;23.014;2023-05-21T00:41:59;101025.31;;;25.49;47.57
42725;BME280;28369;44.046;23.014;2023-05-21T00:44:27;101040.53;;;26.12;46.35
42725;BME280;28369;44.046;23.014;2023-05-21T00:46:59;101043.59;;;26.16;46.10
42725;BME280;28369;44.046;23.014;2023-05-21T00:49:27;101032.97;;;26.02;46.47
42725;BME280;28369;44.046;23.014;2023-05-21T00:51:57;101053.47;;;25.78;47.08
42725;BME280;28369;44.046;23.014;2023-05-21T00:54:25;101021.84;;;25.42;47.51
42725;BME280;28369;44.046;23.014;2023-05-21T00:56:51;101070.69;;;25.70;47.63
42725;BME280;28369;44.046;23.014;2023-05-21T00:59:17;101062.63;;;25.96;47.53
42725;BME280;28369;44.046;23.014;2023-05-21T01:01:43;100991.66;;;25.83;46.67
42725;BME280;28369;44.046;23.014;2023-05-21T01:04:12;101060.53;;;26.42;46.42
42725;BME280;28369;44.046;23.014;2023-05-21T01:06:37;101026.13;;;26.25;45.93
42725;BME280;28369;44.046;23.014;2023-05-21T01:11:47;101051.22;;;26.93;45.21
42725;BME280;28369;44.046;23.014;2023-05-21T01:14:15;101023.72;;;26.54;45.04
42725;BME280;28369;44.046;23.014;2023-05-21T01:16:42;101010.47;;;26.34;44.88
42725;BME280;28369;44.046;23.014;2023-05-21T01:22:03;101033.09;;;26.08;45.04
42725;BME280;28369;44.046;23.014;2023-05-21T01:27:20;100831.13;;;24.76;45.16
42725;BME280;28369;44.046;23.014;2023-05-21T01:29:45;100748.31;;;24.03;45.47
42725;BME280;28369;44.046;23.014;2023-05-21T01:35:04;101051.09;;;26.14;44.91
42725;BME280;28369;44.046;23.014;2023-05-21T01:37:36;101054.38;;;26.16;44.95
42725;BME280;28369;44.046;23.014;2023-05-21T01:42:49;101025.63;;;25.84;45.42
42725;BME280;28369;44.046;23.014;2023-05-21T01:45:15;100965.56;;;25.65;44.97
42725;BME280;28369;44.046;23.014;2023-05-21T01:47:44;101015.41;;;25.93;45.24
42725;BME280;28369;44.046;23.014;2023-05-21T01:50:12;101030.31;;;25.96;45.26
42725;BME280;28369;44.046;23.014;2023-05-21T01:52:38;101051.47;;;25.92;45.68
42725;BME280;28369;44.046;23.014;2023-05-21T01:57:36;101039.94;;;25.60;45.76
42725;BME280;28369;44.046;23.014;2023-05-21T02:00:03;100824.25;;;24.17;45.65
42725;BME280;28369;44.046;23.014;2023-05-21T02:02:29;101042.13;;;25.69;45.60
42725;BME280;28369;44.046;23.014;2023-05-21T02:04:54;101002.56;;;25.45;45.83
42725;BME280;28369;44.046;23.014;2023-05-21T02:07:20;101057.22;;;25.70;45.55
42725;BME280;28369;44.046;23.014;2023-05-21T02:09:46;101039.91;;;25.34;45.82
42725;BME280;28369;44.046;23.014;2023-05-21T02:12:12;100699.47;;;23.35;45.89
42725;BME280;28369;44.046;23.014;2023-05-21T02:14:38;101035.47;;;25.72;45.20
42725;BME280;28369;44.046;23.014;2023-05-21T02:17:03;100744.34;;;23.67;45.73
42725;BME280;28369;44.046;23.014;2023-05-21T02:19:29;101063.31;;;25.59;46.37
42725;BME280;28369;44.046;23.014;2023-05-21T02:21:55;100790.81;;;24.12;45.88
42725;BME280;28369;44.046;23.014;2023-05-21T02:24:21;100812.72;;;24.09;45.82
42725;BME280;28369;44.046;23.014;2023-05-21T02:26:49;100610.84;;;23.03;45.92
42725;BME280;28369;44.046;23.014;2023-05-21T02:29:17;100618.13;;;22.89;45.64
42725;BME280;28369;44.046;23.014;2023-05-21T02:31:42;100636.19;;;23.07;45.54
42725;BME280;28369;44.046;23.014;2023-05-21T02:34:08;101107.41;;;25.90;45.20
42725;BME280;28369;44.046;23.014;2023-05-21T02:36:33;100778.59;;;24.17;44.78
42725;BME280;28369;44.046;23.014;2023-05-21T02:39:00;101049.88;;;26.10;44.31
42725;BME280;28369;44.046;23.014;2023-05-21T02:41:25;101051.13;;;25.82;44.83
42725;BME280;28369;44.046;23.014;2023-05-21T02:43:51;101046.03;;;25.74;44.64
42725;BME280;28369;44.046;23.014;2023-05-21T02:46:16;101074.09;;;25.84;44.94
42725;BME280;28369;44.046;23.014;2023-05-21T02:48:42;100842.59;;;24.65;44.67
42725;BME280;28369;44.046;23.014;2023-05-21T02:51:07;100833.41;;;24.41;44.45
42725;BME280;28369;44.046;23.014;2023-05-21T02:53:33;101011.59;;;25.57;44.40
42725;BME280;28369;44.046;23.014;2023-05-21T02:55:58;100835.84;;;24.49;44.43
42725;BME280;28369;44.046;23.014;2023-05-21T02:58:24;100651.47;;;23.07;44.38
42725;BME280;28369;44.046;23.014;2023-05-21T03:00:50;100604.75;;;22.83;44.33
42725;BME280;28369;44.046;23.014;2023-05-21T03:03:17;100898.47;;;24.88;44.11
42725;BME280;28369;44.046;23.014;2023-05-21T03:05:43;101076.25;;;25.76;44.01
42725;BME280;28369;44.046;23.014;2023-05-21T03:08:10;100787.72;;;24.09;43.95
42725;BME280;28369;44.046;23.014;2023-05-21T03:10:35;101033.47;;;25.35;44.28
42725;BME280;28369;44.046;23.014;2023-05-21T03:13:01;100896.34;;;24.65;44.23
42725;BME280;28369;44.046;23.014;2023-05-21T03:15:29;100597.38;;;22.44;44.39
42725;BME280;28369;44.046;23.014;2023-05-21T03:23:42;100931.63;;;24.23;44.82
42725;BME280;28369;44.046;23.014;2023-05-21T03:26:07;101077.84;;;25.19;44.90
42725;BME280;28369;44.046;23.014;2023-05-21T03:28:34;100999.88;;;24.74;44.92
42725;BME280;28369;44.046;23.014;2023-05-21T03:30:59;100997.88;;;25.01;44.60
42725;BME280;28369;44.046;23.014;2023-05-21T03:33:25;101054.75;;;25.44;44.10
42725;BME280;28369;44.046;23.014;2023-05-21T03:35:50;101030.78;;;25.35;43.98
42725;BME280;28369;44.046;23.014;2023-05-21T03:38:16;101040.19;;;25.51;43.69
42725;BME280;28369;44.046;23.014;2023-05-21T03:40:42;101041.41;;;25.56;43.85
42725;BME280;28369;44.046;23.014;2023-05-21T03:43:07;101038.47;;;25.64;43.55
42725;BME280;28369;44.046;23.014;2023-05-21T03:45:33;101063.81;;;26.00;43.14
42725;BME280;28369;44.046;23.014;2023-05-21T03:47:59;101048.28;;;26.02;42.78
42725;BME280;28369;44.046;23.014;2023-05-21T03:50:26;101036.94;;;25.93;42.92
42725;BME280;28369;44.046;23.014;2023-05-21T03:52:51;101041.66;;;26.23;42.51
42725;BME280;28369;44.046;23.014;2023-05-21T03:55:17;101080.44;;;26.41;42.66
42725;BME280;28369;44.046;23.014;2023-05-21T03:57:42;101052.97;;;26.32;42.52
42725;BME280;28369;44.046;23.014;2023-05-21T04:00:10;101058.44;;;26.25;42.64
42725;BME280;28369;44.046;23.014;2023-05-21T04:02:36;101070.25;;;26.24;42.53
42725;BME280;28369;44.046;23.014;2023-05-21T04:05:02;101089.19;;;26.36;42.95
42725;BME280;28369;44.046;23.014;2023-05-21T04:07:27;101062.94;;;26.31;42.50
42725;BME280;28369;44.046;23.014;2023-05-21T04:09:54;101058.34;;;26.32;42.59
42725;BME280;28369;44.046;23.014;2023-05-21T04:12:20;101061.94;;;26.69;41.88
42725;BME280;28369;44.046;23.014;2023-05-21T04:14:46;101081.22;;;26.85;41.96
42725;BME280;28369;44.046;23.014;2023-05-21T04:19:46;100836.06;;;25.30;42.00
42725;BME280;28369;44.046;23.014;2023-05-21T04:27:29;100941.84;;;26.18;42.28
42725;BME280;28369;44.046;23.014;2023-05-21T04:29:54;101075.84;;;27.15;41.99
42725;BME280;28369;44.046;23.014;2023-05-21T04:32:22;100894.09;;;26.07;41.77
42725;BME280;28369;44.046;23.014;2023-05-21T04:34:48;101075.94;;;27.08;42.25
42725;BME280;28369;44.046;23.014;2023-05-21T04:42:20;100865.66;;;26.11;41.45
42725;BME280;28369;44.046;23.014;2023-05-21T04:44:48;101086.69;;;27.27;41.75
42725;BME280;28369;44.046;23.014;2023-05-21T04:47:15;101067.66;;;27.22;42.14
42725;BME280;28369;44.046;23.014;2023-05-21T04:49:40;101074.00;;;27.58;41.79
42725;BME280;28369;44.046;23.014;2023-05-21T04:54:41;100956.25;;;26.91;42.10
42725;BME280;28369;44.046;23.014;2023-05-21T04:57:07;101082.84;;;27.77;42.07
42725;BME280;28369;44.046;23.014;2023-05-21T04:59:33;101092.75;;;28.07;41.18
42725;BME280;28369;44.046;23.014;2023-05-21T05:04:34;101086.97;;;27.91;41.75
42725;BME280;28369;44.046;23.014;2023-05-21T05:14:48;100704.56;;;26.31;40.86
42725;BME280;28369;44.046;23.014;2023-05-21T05:17:14;101078.03;;;28.62;41.10
42725;BME280;28369;44.046;23.014;2023-05-21T05:19:39;101042.06;;;28.61;40.81
42725;BME280;28369;44.046;23.014;2023-05-21T05:27:30;101085.28;;;29.14;41.27
42725;BME280;28369;44.046;23.014;2023-05-21T05:29:55;101067.34;;;28.96;41.60
42725;BME280;28369;44.046;23.014;2023-05-21T05:32:21;101063.88;;;29.41;40.77
42725;BME280;28369;44.046;23.014;2023-05-21T05:47:42;101064.75;;;30.54;39.33
42725;BME280;28369;44.046;23.014;2023-05-21T05:50:07;101085.38;;;30.77;38.56
42725;BME280;28369;44.046;23.014;2023-05-21T05:52:33;101085.25;;;31.11;38.16
42725;BME280;28369;44.046;23.014;2023-05-21T05:54:58;101086.25;;;31.05;38.01
42725;BME280;28369;44.046;23.014;2023-05-21T05:57:24;101029.63;;;31.14;38.49
42725;BME280;28369;44.046;23.014;2023-05-21T05:59:49;101101.81;;;31.42;38.30
42725;BME280;28369;44.046;23.014;2023-05-21T06:02:15;101089.50;;;31.94;37.21
42725;BME280;28369;44.046;23.014;2023-05-21T06:04:40;101079.22;;;32.01;36.73
42725;BME280;28369;44.046;23.014;2023-05-21T06:07:06;101075.03;;;32.26;36.43
42725;BME280;28369;44.046;23.014;2023-05-21T06:09:32;101039.91;;;32.19;35.90
42725;BME280;28369;44.046;23.014;2023-05-21T06:11:57;101072.66;;;32.45;36.19
42725;BME280;28369;44.046;23.014;2023-05-21T06:14:22;101092.09;;;32.69;36.13
42725;BME280;28369;44.046;23.014;2023-05-21T06:16:48;101064.13;;;31.83;36.61
42725;BME280;28369;44.046;23.014;2023-05-21T06:19:14;101056.84;;;32.32;35.86
42725;BME280;28369;44.046;23.014;2023-05-21T06:21:39;101055.41;;;32.19;35.82
42725;BME280;28369;44.046;23.014;2023-05-21T06:24:05;101078.06;;;32.35;35.44
42725;BME280;28369;44.046;23.014;2023-05-21T06:26:30;101058.75;;;33.10;35.22
42725;BME280;28369;44.046;23.014;2023-05-21T06:28:56;101084.41;;;33.40;34.96
42725;BME280;28369;44.046;23.014;2023-05-21T06:31:21;101099.38;;;33.48;34.29
42725;BME280;28369;44.046;23.014;2023-05-21T06:33:48;101090.94;;;33.65;34.13
42725;BME280;28369;44.046;23.014;2023-05-21T06:36:14;101084.88;;;33.16;33.75
42725;BME280;28369;44.046;23.014;2023-05-21T06:38:40;101019.47;;;32.70;34.31
42725;BME280;28369;44.046;23.014;2023-05-21T06:41:09;100993.66;;;33.03;34.00
42725;BME280;28369;44.046;23.014;2023-05-21T06:43:35;101061.78;;;33.60;33.58
42725;BME280;28369;44.046;23.014;2023-05-21T06:46:01;101070.75;;;33.71;34.15
42725;BME280;28369;44.046;23.014;2023-05-21T06:48:26;101056.84;;;33.72;33.25
42725;BME280;28369;44.046;23.014;2023-05-21T06:50:52;101077.75;;;34.23;32.66
42725;BME280;28369;44.046;23.014;2023-05-21T06:53:17;101041.03;;;34.05;32.89
42725;BME280;28369;44.046;23.014;2023-05-21T06:55:43;101055.66;;;34.35;32.36
42725;BME280;28369;44.046;23.014;2023-05-21T06:58:09;101020.97;;;34.41;32.95
42725;BME280;28369;44.046;23.014;2023-05-21T07:00:35;101057.41;;;34.71;32.44
42725;BME280;28369;44.046;23.014;2023-05-21T07:03:01;101068.47;;;34.40;32.49
42725;BME280;28369;44.046;23.014;2023-05-21T07:05:26;101073.84;;;34.55;32.90
42725;BME280;28369;44.046;23.014;2023-05-21T07:07:52;101089.16;;;34.51;33.04
42725;BME280;28369;44.046;23.014;2023-05-21T07:10:17;101081.50;;;34.53;32.12
42725;BME280;28369;44.046;23.014;2023-05-21T07:12:43;101091.84;;;34.56;32.62
42725;BME280;28369;44.046;23.014;2023-05-21T07:15:09;101041.69;;;34.47;32.12
42725;BME280;28369;44.046;23.014;2023-05-21T07:17:34;101062.75;;;34.21;33.20
42725;BME280;28369;44.046;23.014;2023-05-21T07:20:01;101075.19;;;34.58;33.26
42725;BME280;28369;44.046;23.014;2023-05-21T07:22:27;101077.59;;;34.80;32.69
42725;BME280;28369;44.046;23.014;2023-05-21T07:24:52;101054.63;;;34.81;32.16
42725;BME280;28369;44.046;23.014;2023-05-21T07:27:18;101048.66;;;34.79;32.40
42725;BME280;28369;44.046;23.014;2023-05-21T07:29:43;101049.72;;;34.78;31.60
42725;BME280;28369;44.046;23.014;2023-05-21T07:32:09;101064.28;;;35.08;30.65
42725;BME280;28369;44.046;23.014;2023-05-21T07:34:35;101033.75;;;34.51;31.70
42725;BME280;28369;44.046;23.014;2023-05-21T07:37:00;101042.63;;;34.82;31.24
42725;BME280;28369;44.046;23.014;2023-05-21T07:39:25;101051.03;;;34.31;32.86
42725;BME280;28369;44.046;23.014;2023-05-21T07:41:51;101045.47;;;34.56;33.71
42725;BME280;28369;44.046;23.014;2023-05-21T07:44:16;101059.09;;;34.56;31.32
42725;BME280;28369;44.046;23.014;2023-05-21T07:46:42;101047.09;;;34.57;30.15
42725;BME280;28369;44.046;23.014;2023-05-21T07:49:07;101050.28;;;34.80;34.15
42725;BME280;28369;44.046;23.014;2023-05-21T07:51:40;101050.72;;;34.98;32.64
42725;BME280;28369;44.046;23.014;2023-05-21T07:54:06;101064.69;;;34.91;31.69
42725;BME280;28369;44.046;23.014;2023-05-21T07:56:31;101067.97;;;35.33;31.13
42725;BME280;28369;44.046;23.014;2023-05-21T07:58:57;101048.16;;;35.11;29.76
42725;BME280;28369;44.046;23.014;2023-05-21T08:01:22;101039.38;;;35.20;29.35
42725;BME280;28369;44.046;23.014;2023-05-21T08:03:48;101067.91;;;35.43;30.42
42725;BME280;28369;44.046;23.014;2023-05-21T08:06:13;101061.44;;;35.63;29.13
42725;BME280;28369;44.046;23.014;2023-05-21T08:08:39;101055.75;;;34.80;29.72
42725;BME280;28369;44.046;23.014;2023-05-21T08:11:05;101009.53;;;34.44;30.24
42725;BME280;28369;44.046;23.014;2023-05-21T08:13:30;101061.91;;;34.96;30.04
42725;BME280;28369;44.046;23.014;2023-05-21T08:15:56;101049.94;;;34.87;29.44
42725;BME280;28369;44.046;23.014;2023-05-21T08:18:21;101039.94;;;34.67;29.11
42725;BME280;28369;44.046;23.014;2023-05-21T08:20:47;101054.72;;;34.66;29.32
42725;BME280;28369;44.046;23.014;2023-05-21T08:23:14;101050.63;;;34.63;29.66
42725;BME280;28369;44.046;23.014;2023-05-21T08:25:40;101054.72;;;34.66;29.07
42725;BME280;28369;44.046;23.014;2023-05-21T08:28:06;101037.69;;;34.14;28.72
42725;BME280;28369;44.046;23.014;2023-05-21T08:30:31;101058.03;;;34.57;28.71
42725;BME280;28369;44.046;23.014;2023-05-21T08:32:57;100999.28;;;34.10;28.83
42725;BME280;28369;44.046;23.014;2023-05-21T08:35:23;101026.06;;;33.87;29.74
42725;BME280;28369;44.046;23.014;2023-05-21T08:37:48;101060.75;;;34.57;28.54
42725;BME280;28369;44.046;23.014;2023-05-21T08:40:14;101048.88;;;34.33;29.12
42725;BME280;28369;44.046;23.014;2023-05-21T08:42:48;101053.53;;;34.82;28.23
42725;BME280;28369;44.046;23.014;2023-05-21T08:45:19;101046.34;;;34.96;28.37
42725;BME280;28369;44.046;23.014;2023-05-21T08:47:45;101036.09;;;34.73;28.60
42725;BME280;28369;44.046;23.014;2023-05-21T08:50:12;101051.28;;;34.94;28.53
42725;BME280;28369;44.046;23.014;2023-05-21T08:52:39;101049.88;;;35.37;28.37
42725;BME280;28369;44.046;23.014;2023-05-21T08:55:06;101011.09;;;35.40;29.08
42725;BME280;28369;44.046;23.014;2023-05-21T08:57:32;101035.88;;;35.14;28.95
42725;BME280;28369;44.046;23.014;2023-05-21T08:59:58;101051.50;;;35.03;28.16
42725;BME280;28369;44.046;23.014;2023-05-21T09:02:24;101006.31;;;34.76;27.67
42725;BME280;28369;44.046;23.014;2023-05-21T09:04:52;101036.88;;;35.23;28.15
42725;BME280;28369;44.046;23.014;2023-05-21T09:07:25;101029.75;;;35.22;28.19
42725;BME280;28369;44.046;23.014;2023-05-21T09:10:03;101004.81;;;35.63;28.80
42725;BME280;28369;44.046;23.014;2023-05-21T09:12:30;101025.09;;;35.87;27.51
42725;BME280;28369;44.046;23.014;2023-05-21T09:14:56;101031.56;;;36.20;28.52
42725;BME280;28369;44.046;23.014;2023-05-21T09:17:23;101030.69;;;36.01;27.24
42725;BME280;28369;44.046;23.014;2023-05-21T09:22:48;101033.66;;;36.72;27.69
42725;BME280;28369;44.046;23.014;2023-05-21T09:25:15;101022.53;;;35.95;29.39
42725;BME280;28369;44.046;23.014;2023-05-21T09:27:41;100912.50;;;35.31;29.35
42725;BME280;28369;44.046;23.014;2023-05-21T09:30:15;100988.25;;;35.84;28.47
42725;BME280;28369;44.046;23.014;2023-05-21T09:32:42;101016.94;;;36.54;28.32
42725;BME280;28369;44.046;23.014;2023-05-21T09:35:10;100991.00;;;36.27;29.21
42725;BME280;28369;44.046;23.014;2023-05-21T09:37:56;101023.53;;;36.29;27.30
42725;BME280;28369;44.046;23.014;2023-05-21T09:40:22;100998.50;;;36.41;27.78
42725;BME280;28369;44.046;23.014;2023-05-21T09:42:53;101016.69;;;36.70;28.10
42725;BME280;28369;44.046;23.014;2023-05-21T09:45:23;101015.28;;;36.72;28.01
42725;BME280;28369;44.046;23.014;2023-05-21T09:47:51;101017.75;;;36.93;27.59
42725;BME280;28369;44.046;23.014;2023-05-21T09:50:19;101008.19;;;36.71;27.98
42725;BME280;28369;44.046;23.014;2023-05-21T09:52:45;101015.47;;;37.14;29.07
42725;BME280;28369;44.046;23.014;2023-05-21T09:55:12;100995.47;;;37.32;29.04
42725;BME280;28369;44.046;23.014;2023-05-21T09:57:45;101020.03;;;37.98;24.60
42725;BME280;28369;44.046;23.014;2023-05-21T10:00:26;101008.47;;;38.01;24.70
42725;BME280;28369;44.046;23.014;2023-05-21T10:02:56;100995.00;;;38.14;25.02
42725;BME280;28369;44.046;23.014;2023-05-21T10:05:26;101025.44;;;38.31;26.69
42725;BME280;28369;44.046;23.014;2023-05-21T10:08:02;101010.91;;;38.03;25.57
42725;BME280;28369;44.046;23.014;2023-05-21T10:10:29;101022.53;;;37.67;24.87
42725;BME280;28369;44.046;23.014;2023-05-21T10:13:08;100938.31;;;36.74;26.70
42725;BME280;28369;44.046;23.014;2023-05-21T10:15:38;101004.25;;;36.96;25.97
42725;BME280;28369;44.046;23.014;2023-05-21T10:18:09;100997.09;;;37.33;27.63
42725;BME280;28369;44.046;23.014;2023-05-21T10:20:35;100971.56;;;37.19;27.20
42725;BME280;28369;44.046;23.014;2023-05-21T10:23:01;100977.59;;;37.02;26.77
42725;BME280;28369;44.046;23.014;2023-05-21T10:25:27;100979.06;;;36.80;26.92
42725;BME280;28369;44.046;23.014;2023-05-21T10:27:55;100999.50;;;35.48;27.50
42725;BME280;28369;44.046;23.014;2023-05-21T10:30:22;100998.03;;;36.09;27.97
42725;BME280;28369;44.046;23.014;2023-05-21T10:32:48;100897.94;;;35.11;26.88
42725;BME280;28369;44.046;23.014;2023-05-21T10:35:15;100954.38;;;35.80;26.35
42725;BME280;28369;44.046;23.014;2023-05-21T10:37:42;100960.47;;;35.96;26.92
42725;BME280;28369;44.046;23.014;2023-05-21T10:40:08;100974.00;;;36.49;26.76
42725;BME280;28369;44.046;23.014;2023-05-21T10:42:51;100948.19;;;36.37;25.11
42725;BME280;28369;44.046;23.014;2023-05-21T10:51:27;100978.53;;;36.59;26.66
42725;BME280;28369;44.046;23.014;2023-05-21T10:59:47;100957.19;;;36.75;26.41
42725;BME280;28369;44.046;23.014;2023-05-21T11:02:14;100970.59;;;36.96;26.71
42725;BME280;28369;44.046;23.014;2023-05-21T11:04:43;100941.44;;;36.86;25.37
42725;BME280;28369;44.046;23.014;2023-05-21T11:07:11;100957.94;;;36.81;25.21
42725;BME280;28369;44.046;23.014;2023-05-21T11:09:37;100945.19;;;37.23;25.24
42725;BME280;28369;44.046;23.014;2023-05-21T11:12:03;100958.84;;;36.57;25.18
42725;BME280;28369;44.046;23.014;2023-05-21T11:14:39;100953.44;;;36.90;25.86
42725;BME280;28369;44.046;23.014;2023-05-21T11:19:37;100944.84;;;37.11;24.94
42725;BME280;28369;44.046;23.014;2023-05-21T11:22:20;100929.50;;;37.57;25.30
42725;BME280;28369;44.046;23.014;2023-05-21T11:24:49;100949.84;;;37.09;25.56
42725;BME280;28369;44.046;23.014;2023-05-21T11:27:38;100947.59;;;37.58;25.30
42725;BME280;28369;44.046;23.014;2023-05-21T11:30:18;100953.50;;;37.79;26.23
42725;BME280;28369;44.046;23.014;2023-05-21T11:35:37;100907.13;;;37.22;25.97
42725;BME280;28369;44.046;23.014;2023-05-21T11:38:03;100836.81;;;35.80;25.65
42725;BME280;28369;44.046;23.014;2023-05-21T11:40:28;100918.88;;;36.18;26.05
42725;BME280;28369;44.046;23.014;2023-05-21T11:42:55;100889.19;;;36.30;25.75
42725;BME280;28369;44.046;23.014;2023-05-21T11:45:26;100903.31;;;37.37;25.93
42725;BME280;28369;44.046;23.014;2023-05-21T11:47:52;100916.91;;;37.69;23.96
42725;BME280;28369;44.046;23.014;2023-05-21T11:50:18;100869.44;;;37.97;26.01
42725;BME280;28369;44.046;23.014;2023-05-21T11:52:44;100909.31;;;37.80;24.35
42725;BME280;28369;44.046;23.014;2023-05-21T11:55:10;100898.09;;;38.04;25.17
42725;BME280;28369;44.046;23.014;2023-05-21T11:57:40;100920.44;;;38.12;23.57
42725;BME280;28369;44.046;23.014;2023-05-21T12:00:11;100905.91;;;38.48;23.62
42725;BME280;28369;44.046;23.014;2023-05-21T12:02:43;100891.22;;;38.30;24.59
42725;BME280;28369;44.046;23.014;2023-05-21T12:05:08;100891.66;;;38.23;23.05
42725;BME280;28369;44.046;23.014;2023-05-21T12:07:34;100890.91;;;37.95;23.48
42725;BME280;28369;44.046;23.014;2023-05-21T12:09:59;100897.00;;;37.64;23.90
42725;BME280;28369;44.046;23.014;2023-05-21T12:12:26;100865.16;;;37.40;23.13
42725;BME280;28369;44.046;23.014;2023-05-21T12:14:53;100836.09;;;37.53;23.10
42725;BME280;28369;44.046;23.014;2023-05-21T12:17:23;100883.59;;;37.62;22.63
42725;BME280;28369;44.046;23.014;2023-05-21T12:19:52;100877.44;;;37.43;23.16
42725;BME280;28369;44.046;23.014;2023-05-21T12:22:18;100869.63;;;37.36;24.15
42725;BME280;28369;44.046;23.014;2023-05-21T12:24:44;100855.56;;;37.65;22.90
42725;BME280;28369;44.046;23.014;2023-05-21T12:27:11;100866.97;;;37.45;24.23
42725;BME280;28369;44.046;23.014;2023-05-21T12:29:45;100804.03;;;37.12;24.04
42725;BME280;28369;44.046;23.014;2023-05-21T12:32:11;100853.53;;;37.71;25.24
42725;BME280;28369;44.046;23.014;2023-05-21T12:39:46;100825.31;;;37.57;22.84
42725;BME280;28369;44.046;23.014;2023-05-21T12:42:15;100791.41;;;37.52;24.14
42725;BME280;28369;44.046;23.014;2023-05-21T12:44:45;100795.09;;;37.20;24.04
42725;BME280;28369;44.046;23.014;2023-05-21T12:47:14;100838.50;;;38.19;23.73
42725;BME280;28369;44.046;23.014;2023-05-21T12:49:46;100827.56;;;38.42;23.37
42725;BME280;28369;44.046;23.014;2023-05-21T12:52:14;100843.28;;;38.27;22.25
42725;BME280;28369;44.046;23.014;2023-05-21T12:54:42;100815.91;;;37.35;22.79
42725;BME280;28369;44.046;23.014;2023-05-21T12:57:15;100826.34;;;37.75;22.86
42725;BME280;28369;44.046;23.014;2023-05-21T12:59:55;100793.81;;;37.82;22.59
42725;BME280;28369;44.046;23.014;2023-05-21T13:04:55;100835.84;;;38.28;23.41
42725;BME280;28369;44.046;23.014;2023-05-21T13:07:21;100823.06;;;37.86;23.50
42725;BME280;28369;44.046;23.014;2023-05-21T13:09:47;100815.06;;;37.76;22.37
42725;BME280;28369;44.046;23.014;2023-05-21T13:12:13;100829.41;;;38.55;22.28
42725;BME280;28369;44.046;23.014;2023-05-21T13:14:39;100833.25;;;38.77;21.72
42725;BME280;28369;44.046;23.014;2023-05-21T13:17:04;100845.50;;;38.25;22.68
42725;BME280;28369;44.046;23.014;2023-05-21T13:19:30;100834.06;;;38.09;23.11
42725;BME280;28369;44.046;23.014;2023-05-21T13:21:56;100816.16;;;38.12;22.84
42725;BME280;28369;44.046;23.014;2023-05-21T13:24:21;100848.06;;;38.98;22.77
42725;BME280;28369;44.046;23.014;2023-05-21T13:26:47;100721.19;;;37.79;22.68
42725;BME280;28369;44.046;23.014;2023-05-21T13:29:13;100837.34;;;38.88;23.89
42725;BME280;28369;44.046;23.014;2023-05-21T13:31:40;100839.78;;;38.89;23.54
42725;BME280;28369;44.046;23.014;2023-05-21T13:34:06;100847.78;;;39.40;22.42
42725;BME280;28369;44.046;23.014;2023-05-21T13:36:32;100909.66;;;38.97;22.55
42725;BME280;28369;44.046;23.014;2023-05-21T13:38:58;100913.69;;;37.07;26.13
42725;BME280;28369;44.046;23.014;2023-05-21T13:41:23;100896.28;;;33.86;30.82
42725;BME280;28369;44.046;23.014;2023-05-21T13:43:49;100870.53;;;32.24;33.39
42725;BME280;28369;44.046;23.014;2023-05-21T13:46:14;100930.97;;;31.78;34.27
42725;BME280;28369;44.046;23.014;2023-05-21T13:48:40;100927.34;;;30.65;35.46
42725;BME280;28369;44.046;23.014;2023-05-21T13:51:07;100939.47;;;30.57;36.22
42725;BME280;28369;44.046;23.014;2023-05-21T13:53:33;100929.56;;;29.23;38.83
42725;BME280;28369;44.046;23.014;2023-05-21T13:55:58;100962.13;;;30.02;38.18
42725;BME280;28369;44.046;23.014;2023-05-21T13:58:24;100910.94;;;29.66;38.33
42725;BME280;28369;44.046;23.014;2023-05-21T14:00:52;100941.72;;;29.94;38.03
42725;BME280;28369;44.046;23.014;2023-05-21T14:03:17;100976.19;;;29.81;38.94
42725;BME280;28369;44.046;23.014;2023-05-21T14:05:43;100952.41;;;28.99;42.15
42725;BME280;28369;44.046;23.014;2023-05-21T14:08:09;100984.16;;;28.34;43.48
42725;BME280;28369;44.046;23.014;2023-05-21T14:10:34;100920.44;;;27.73;45.34
42725;BME280;28369;44.046;23.014;2023-05-21T14:13:00;100974.44;;;27.97;45.53